Time;durP1;ratioP1;P1;durP2;ratioP2;P2;SDS_P1;SDS_P2;PMS_P1;PMS_P2;Temp;Humidity;BMP_temperature;BMP_pressure;BME280_temperature;BME280_humidity;BME280_pressure;Samples;Min_cycle;Max_cycle;Signal;HPM_P1;HPM_P2
2023/09/29 00:02:21;;;;;;;12.05;4.88;;;15.80;99.90;;;;;;5099851;27;20055;-79
2023/09/29 00:05:23;;;;;;;15.52;5.07;;;15.80;99.90;;;;;;5138196;27;20062;-80
2023/09/29 00:08:29;;;;;;;13.10;4.80;;;15.80;99.90;;;;;;5138927;27;20108;-77
2023/09/29 00:11:56;;;;;;;13.57;4.93;;;15.80;99.90;;;;;;5090190;27;20082;-78
2023/09/29 00:14:52;;;;;;;16.40;4.95;;;15.80;99.90;;;;;;5105228;27;20046;-77
2023/09/29 00:18:07;;;;;;;13.23;4.73;;;15.80;99.90;;;;;;5143914;27;20053;-78
2023/09/29 00:21:04;;;;;;;13.40;4.82;;;15.80;99.90;;;;;;5103562;27;20057;-77
2023/09/29 00:24:16;;;;;;;16.48;4.60;;;15.80;99.90;;;;;;5116901;27;20047;-77
2023/09/29 00:27:20;;;;;;;11.75;4.07;;;15.80;99.90;;;;;;5100071;28;20094;-77
2023/09/29 00:30:22;;;;;;;13.52;4.20;;;15.80;99.90;;;;;;5039878;28;20136;-77
2023/09/29 00:33:28;;;;;;;14.25;3.90;;;15.80;99.90;;;;;;4947569;28;20120;-77
2023/09/29 00:36:32;;;;;;;10.38;4.20;;;15.80;99.90;;;;;;4996283;28;20410;-75
2023/09/29 00:43:08;;;;;;;15.63;4.03;;;15.90;99.90;;;;;;4977907;28;20057;-79
2023/09/29 00:46:12;;;;;;;14.73;3.75;;;15.90;99.90;;;;;;4916905;28;20065;-77
2023/09/29 00:49:04;;;;;;;12.48;3.47;;;15.90;99.90;;;;;;5051540;28;20135;-76
2023/09/29 00:51:59;;;;;;;14.85;4.10;;;15.90;99.90;;;;;;5038231;28;20150;-78
2023/09/29 00:54:51;;;;;;;11.33;3.40;;;16.00;99.90;;;;;;5052369;28;20661;-77
2023/09/29 00:57:48;;;;;;;16.13;4.35;;;15.60;99.90;;;;;;5047561;28;20048;-76
2023/09/29 01:00:41;;;;;;;12.80;3.50;;;16.00;99.90;;;;;;5079854;27;20050;-77
2023/09/29 01:03:43;;;;;;;15.65;4.15;;;16.00;99.90;;;;;;5132078;27;20038;-78
2023/09/29 01:06:57;;;;;;;12.23;3.17;;;16.10;99.90;;;;;;5132182;27;20042;-78
2023/09/29 01:09:50;;;;;;;10.93;3.70;;;16.10;99.90;;;;;;5131914;27;20110;-78
2023/09/29 01:13:12;;;;;;;10.73;3.55;;;16.00;99.90;;;;;;5131391;27;20050;-76
2023/09/29 01:15:59;;;;;;;13.30;3.80;;;16.00;99.90;;;;;;5129428;27;20569;-77
2023/09/29 01:18:43;;;;;;;16.15;3.78;;;16.50;99.90;;;;;;5098130;27;20398;-79
2023/09/29 01:21:47;;;;;;;14.55;3.33;;;16.10;99.90;;;;;;5131568;27;20047;-79
2023/09/29 01:24:39;;;;;;;12.63;3.80;;;16.10;99.90;;;;;;5132246;27;20042;-78
2023/09/29 01:27:34;;;;;;;17.25;3.67;;;15.30;99.90;;;;;;5113234;27;20046;-77
2023/09/29 01:30:32;;;;;;;13.18;3.50;;;16.10;99.90;;;;;;5129497;27;20506;-76
2023/09/29 01:33:22;;;;;;;12.82;3.50;;;16.10;99.90;;;;;;5113283;27;20046;-78
2023/09/29 01:36:25;;;;;;;12.90;3.67;;;16.10;99.90;;;;;;5092902;27;20039;-76
2023/09/29 01:39:39;;;;;;;11.98;3.53;;;16.10;99.90;;;;;;5112866;27;20134;-77
2023/09/29 01:42:53;;;;;;;13.55;3.33;;;16.10;99.90;;;;;;5134220;27;20464;-76
2023/09/29 01:46:01;;;;;;;14.45;3.67;;;16.10;99.90;;;;;;5070786;28;20190;-79
2023/09/29 01:49:06;;;;;;;14.18;3.28;;;16.10;99.90;;;;;;5086812;28;20075;-76
2023/09/29 01:51:50;;;;;;;11.75;3.35;;;16.10;99.90;;;;;;5070720;28;20051;-79
2023/09/29 01:54:36;;;;;;;13.50;3.83;;;16.10;99.90;;;;;;5054282;28;20078;-75
2023/09/29 01:57:39;;;;;;;16.60;3.72;;;16.10;99.90;;;;;;5089880;28;20139;-77
2023/09/29 02:00:46;;;;;;;13.65;3.58;;;16.10;99.90;;;;;;5069733;28;20059;-79
2023/09/29 02:03:45;;;;;;;13.00;3.35;;;16.10;99.90;;;;;;5048655;28;20060;-76
2023/09/29 02:06:59;;;;;;;14.57;3.38;;;16.10;99.90;;;;;;5027649;28;20064;-78
2023/09/29 02:10:07;;;;;;;12.55;3.90;;;16.10;99.90;;;;;;5017816;28;20089;-76
2023/09/29 02:13:25;;;;;;;13.63;3.80;;;16.10;99.90;;;;;;5049294;28;20060;-80
2023/09/29 02:16:19;;;;;;;14.40;3.70;;;16.10;99.90;;;;;;5035165;28;20063;-78
2023/09/29 02:19:22;;;;;;;17.40;4.28;;;16.10;99.90;;;;;;5053234;28;20055;-76
2023/09/29 02:22:36;;;;;;;16.45;3.88;;;16.10;99.90;;;;;;5065697;28;20503;-78
2023/09/29 02:25:26;;;;;;;12.88;3.75;;;16.10;99.90;;;;;;5053846;28;20147;-77
2023/09/29 02:28:12;;;;;;;19.00;4.25;;;16.00;99.90;;;;;;5070172;28;20048;-79
2023/09/29 02:30:58;;;;;;;16.48;4.30;;;16.10;99.90;;;;;;5070076;28;20048;-78
2023/09/29 02:34:01;;;;;;;14.48;4.10;;;16.10;99.90;;;;;;5082860;27;20062;-77
2023/09/29 02:40:25;;;;;;;11.57;3.45;;;16.20;99.90;;;;;;5113830;27;20079;-79
2023/09/29 02:43:16;;;;;;;11.85;3.60;;;16.10;99.90;;;;;;5115721;27;20190;-78
2023/09/29 02:46:21;;;;;;;14.60;3.78;;;16.20;99.90;;;;;;5115294;27;20054;-77
2023/09/29 02:49:33;;;;;;;13.00;4.00;;;16.20;99.90;;;;;;5132801;27;20050;-80
2023/09/29 02:52:39;;;;;;;11.73;3.83;;;16.10;99.90;;;;;;5134866;27;20046;-78
2023/09/29 02:55:34;;;;;;;11.80;3.23;;;15.50;99.90;;;;;;5098041;27;20051;-76
2023/09/29 03:02:23;;;;;;;17.48;4.00;;;16.30;99.90;;;;;;5029855;28;21605;-75
2023/09/29 03:05:43;;;;;;;10.02;3.22;;;16.30;99.90;;;;;;5015264;28;20069;-75
2023/09/29 03:08:36;;;;;;;12.93;3.60;;;16.30;99.90;;;;;;5013118;28;20156;-79
2023/09/29 03:11:29;;;;;;;15.02;3.60;;;16.30;99.90;;;;;;5031679;28;20774;-75
2023/09/29 03:14:24;;;;;;;10.80;3.17;;;16.30;99.90;;;;;;5032030;28;20049;-75
2023/09/29 03:17:45;;;;;;;12.35;3.40;;;16.30;99.90;;;;;;5124809;27;20058;-80
2023/09/29 03:20:52;;;;;;;13.05;3.90;;;16.40;99.90;;;;;;5115236;27;20055;-78
2023/09/29 03:23:51;;;;;;;12.70;3.13;;;16.40;99.90;;;;;;5132616;27;20045;-77
2023/09/29 03:26:51;;;;;;;9.93;3.70;;;16.40;99.90;;;;;;5100287;27;20103;-74
2023/09/29 03:29:54;;;;;;;13.70;3.60;;;16.40;99.90;;;;;;5122238;27;20031;-77
2023/09/29 03:32:49;;;;;;;13.27;3.22;;;16.90;99.90;;;;;;5117883;27;20340;-77
2023/09/29 03:35:47;;;;;;;10.75;3.53;;;16.50;99.90;;;;;;5132200;27;20042;-74
2023/09/29 03:38:56;;;;;;;11.80;3.33;;;16.50;99.90;;;;;;5115627;27;20694;-76
2023/09/29 03:41:51;;;;;;;8.93;2.95;;;16.50;99.90;;;;;;5113943;27;20111;-78
2023/09/29 03:44:44;;;;;;;12.02;3.42;;;16.50;99.90;;;;;;5117142;27;20050;-76
2023/09/29 03:47:38;;;;;;;14.40;3.35;;;16.50;99.80;;;;;;5118938;27;21256;-76
2023/09/29 03:50:49;;;;;;;17.98;3.40;;;16.60;99.80;;;;;;5116780;27;20469;-76
2023/09/29 03:53:43;;;;;;;14.88;5.47;;;16.60;99.80;;;;;;5099530;27;20046;-77
2023/09/29 03:56:53;;;;;;;17.48;6.38;;;16.10;99.60;;;;;;5134879;27;20050;-79
2023/09/29 03:59:30;;;;;;;19.30;8.07;;;16.60;99.70;;;;;;5119128;27;20110;-77
2023/09/29 04:02:23;;;;;;;21.98;11.52;;;16.70;99.70;;;;;;5136930;27;20505;-76
2023/09/29 04:05:23;;;;;;;22.25;12.23;;;16.70;99.70;;;;;;5122178;27;20054;-76
2023/09/29 04:08:27;;;;;;;24.40;11.98;;;16.80;99.50;;;;;;5103076;27;20618;-78
2023/09/29 04:11:35;;;;;;;25.85;10.93;;;16.80;99.60;;;;;;5119893;27;20119;-76
2023/09/29 04:14:21;;;;;;;22.45;9.77;;;16.80;99.70;;;;;;5136725;27;20055;-75
2023/09/29 04:20:10;;;;;;;18.40;7.55;;;16.90;99.90;;;;;;5134602;27;20389;-80
2023/09/29 04:30:34;;;;;;;16.58;6.00;;;16.80;99.90;;;;;;5030409;28;20041;-77
2023/09/29 04:33:57;;;;;;;16.63;6.30;;;16.80;99.90;;;;;;4956947;28;20342;-78
2023/09/29 04:37:03;;;;;;;17.50;5.75;;;16.80;99.90;;;;;;4939354;28;20073;-77
2023/09/29 04:39:49;;;;;;;14.32;5.63;;;15.70;99.90;;;;;;4939793;28;20091;-77
2023/09/29 04:42:54;;;;;;;17.35;5.63;;;16.70;99.90;;;;;;4925825;28;21631;-77
2023/09/29 04:45:39;;;;;;;12.45;5.22;;;16.70;99.90;;;;;;4940169;28;20058;-78
2023/09/29 04:48:16;;;;;;;12.02;5.25;;;16.70;99.90;;;;;;4939419;28;20070;-77
2023/09/29 04:51:32;;;;;;;12.68;4.90;;;16.70;99.90;;;;;;4956853;28;20111;-77
2023/09/29 04:54:24;;;;;;;13.60;5.35;;;16.70;99.90;;;;;;4953309;28;20086;-77
2023/09/29 04:57:15;;;;;;;14.35;5.95;;;16.70;99.90;;;;;;4944888;28;20055;-76
2023/09/29 04:59:59;;;;;;;13.88;6.10;;;16.70;99.90;;;;;;4958734;28;20082;-77
2023/09/29 05:02:42;;;;;;;14.93;5.30;;;16.70;99.90;;;;;;4941688;28;20105;-76
2023/09/29 05:05:33;;;;;;;14.10;5.20;;;16.70;99.90;;;;;;4955089;28;20285;-78
2023/09/29 05:08:19;;;;;;;13.77;5.22;;;16.70;99.90;;;;;;5002227;28;20057;-76
2023/09/29 05:11:23;;;;;;;16.00;5.68;;;16.70;99.90;;;;;;5039299;28;20051;-76
2023/09/29 05:13:55;;;;;;;13.90;5.37;;;16.80;99.90;;;;;;5007080;28;20052;-75
2023/09/29 05:16:57;;;;;;;11.63;4.55;;;16.70;99.90;;;;;;5053760;28;20055;-77
2023/09/29 05:19:49;;;;;;;11.70;4.47;;;16.70;99.90;;;;;;5028121;28;20091;-76
2023/09/29 05:22:34;;;;;;;18.17;4.97;;;16.70;99.90;;;;;;5035787;28;20055;-79
2023/09/29 05:25:01;;;;;;;11.50;4.43;;;16.70;99.90;;;;;;5097336;27;20054;-80
2023/09/29 05:27:32;;;;;;;11.77;4.13;;;16.40;99.90;;;;;;5116076;27;20050;-83
2023/09/29 05:29:58;;;;;;;11.65;4.63;;;16.70;99.90;;;;;;5098703;27;20054;-80
2023/09/29 05:32:24;;;;;;;11.77;4.28;;;16.70;99.90;;;;;;5093345;27;21634;-78
2023/09/29 05:34:51;;;;;;;10.25;4.25;;;16.70;99.90;;;;;;5112883;27;20165;-81
2023/09/29 05:37:55;;;;;;;15.43;4.40;;;16.70;99.90;;;;;;5130428;27;20050;-79
2023/09/29 05:40:56;;;;;;;11.65;3.60;;;16.70;99.90;;;;;;5080412;27;20051;-80
2023/09/29 05:43:22;;;;;;;10.68;3.83;;;16.60;99.90;;;;;;5095089;27;20061;-78
2023/09/29 05:45:48;;;;;;;14.35;3.80;;;16.70;99.90;;;;;;5097824;27;20081;-80
2023/09/29 05:48:18;;;;;;;8.80;3.47;;;16.70;99.90;;;;;;5080319;27;20095;-80
2023/09/29 05:51:04;;;;;;;11.40;3.75;;;17.10;99.90;;;;;;5112104;27;20047;-77
2023/09/29 05:53:37;;;;;;;;;;;16.70;99.90;;;;;;5114051;27;20149;-74
2023/09/29 05:56:34;;;;;;;10.23;4.05;;;16.70;99.90;;;;;;5114450;27;19929;-77
2023/09/29 05:59:02;;;;;;;14.73;4.05;;;16.20;99.90;;;;;;5109758;27;20114;-82
2023/09/29 06:01:53;;;;;;;11.07;4.10;;;16.80;99.90;;;;;;5116684;27;20128;-78
2023/09/29 06:04:35;;;;;;;13.67;3.23;;;16.80;99.90;;;;;;5093559;28;20055;-79
2023/09/29 06:07:02;;;;;;;12.75;3.72;;;16.80;99.90;;;;;;5095060;28;20051;-77
2023/09/29 06:09:51;;;;;;;9.13;3.67;;;16.90;99.90;;;;;;5092239;28;20048;-78
2023/09/29 06:12:17;;;;;;;12.40;3.72;;;16.90;99.90;;;;;;5059023;28;20055;-78
2023/09/29 06:14:51;;;;;;;14.38;4.55;;;16.80;99.90;;;;;;5091985;28;20129;-82
2023/09/29 06:17:17;;;;;;;11.55;3.67;;;16.90;99.90;;;;;;5074666;28;20043;-78
2023/09/29 06:19:50;;;;;;;9.45;3.60;;;16.80;99.90;;;;;;5047149;28;20244;-82
2023/09/29 06:22:32;;;;;;;9.93;3.78;;;16.90;99.90;;;;;;5059783;28;20100;-74
2023/09/29 06:26:14;;;;;;;11.23;3.78;;;16.90;99.90;;;;;;5095268;28;20116;-81
2023/09/29 06:31:40;;;;;;;9.88;3.20;;;17.00;99.90;;;;;;5052058;28;20059;-81
2023/09/29 06:34:31;;;;;;;10.98;3.30;;;17.30;99.90;;;;;;5092918;28;20039;-80
2023/09/29 06:43:00;;;;;;;9.43;3.75;;;17.20;99.90;;;;;;4979974;28;20051;-77
2023/09/29 06:45:35;;;;;;;11.38;3.92;;;17.60;99.90;;;;;;4961556;28;20546;-79
2023/09/29 06:48:07;;;;;;;10.15;3.22;;;17.20;99.90;;;;;;4916202;28;20074;-78
2023/09/29 06:51:06;;;;;;;9.07;3.15;;;17.30;99.90;;;;;;4940701;28;20078;-74
2023/09/29 06:54:02;;;;;;;9.80;3.25;;;17.30;99.90;;;;;;4943410;28;20059;-78
2023/09/29 06:56:30;;;;;;;12.40;3.95;;;17.30;99.90;;;;;;4944610;28;20471;-80
2023/09/29 06:59:22;;;;;;;8.75;3.28;;;17.30;99.90;;;;;;4963320;28;20498;-79
2023/09/29 07:02:25;;;;;;;8.35;3.13;;;17.40;99.90;;;;;;4960707;28;20238;-76
2023/09/29 07:05:34;;;;;;;9.75;3.60;;;17.40;99.90;;;;;;4960630;28;20348;-80
2023/09/29 07:08:00;;;;;;;9.18;3.65;;;17.40;99.90;;;;;;5000862;28;20069;-77
2023/09/29 07:10:56;;;;;;;9.13;3.72;;;17.50;99.90;;;;;;5019990;28;20175;-75
2023/09/29 07:13:53;;;;;;;9.07;3.90;;;17.50;99.90;;;;;;5005095;28;20041;-74
2023/09/29 07:16:52;;;;;;;14.77;4.65;;;17.60;99.90;;;;;;5017587;28;20144;-83
2023/09/29 07:19:43;;;;;;;9.60;3.80;;;18.00;99.90;;;;;;5057393;28;20052;-77
2023/09/29 07:22:51;;;;;;;12.00;3.30;;;17.70;99.90;;;;;;5055007;28;20383;-76
2023/09/29 07:25:41;;;;;;;7.65;3.42;;;17.60;99.90;;;;;;5040813;28;20059;-79
2023/09/29 07:28:54;;;;;;;9.27;3.33;;;17.70;99.90;;;;;;5081102;28;20492;-79
2023/09/29 07:31:59;;;;;;;8.25;3.65;;;17.80;99.90;;;;;;5081986;28;20060;-81
2023/09/29 07:35:10;;;;;;;7.05;3.00;;;17.80;99.90;;;;;;5080510;28;20254;-79
2023/09/29 07:38:00;;;;;;;7.30;3.25;;;17.80;99.90;;;;;;5079080;28;20455;-76
2023/09/29 07:41:15;;;;;;;12.63;4.03;;;17.90;99.90;;;;;;5053970;28;20082;-74
2023/09/29 07:44:15;;;;;;;12.80;3.28;;;17.90;99.90;;;;;;5089501;27;20142;-74
2023/09/29 07:47:08;;;;;;;11.15;3.25;;;18.00;99.90;;;;;;5124151;27;20050;-75
2023/09/29 07:50:05;;;;;;;8.85;3.45;;;18.10;99.90;;;;;;5137314;27;20046;-73
2023/09/29 07:52:47;;;;;;;10.93;3.83;;;18.20;99.90;;;;;;5084477;27;20425;-77
2023/09/29 07:55:35;;;;;;;11.18;3.65;;;18.20;99.90;;;;;;5100758;27;20407;-73
2023/09/29 07:58:29;;;;;;;8.68;3.67;;;18.30;99.90;;;;;;5137944;27;20137;-76
2023/09/29 08:01:11;;;;;;;9.45;3.28;;;18.30;99.90;;;;;;5119092;27;20159;-75
2023/09/29 08:04:13;;;;;;;9.57;3.38;;;18.30;99.90;;;;;;5116633;27;20146;-78
2023/09/29 08:07:27;;;;;;;7.60;3.30;;;18.40;99.90;;;;;;5022916;28;20511;-74
2023/09/29 08:10:17;;;;;;;10.15;3.22;;;18.50;99.90;;;;;;5057144;28;20048;-75
2023/09/29 08:14:23;;;;;;;8.43;3.03;;;18.50;99.90;;;;;;4960804;28;20136;-78
2023/09/29 08:17:35;;;;;;;11.52;3.53;;;18.70;99.90;;;;;;4982399;28;20093;-74
2023/09/29 08:20:41;;;;;;;8.90;3.03;;;18.80;99.90;;;;;;4974663;28;20433;-75
2023/09/29 08:23:39;;;;;;;7.07;3.15;;;19.60;99.90;;;;;;5015239;28;20052;-78
2023/09/29 08:26:43;;;;;;;6.65;3.20;;;19.10;99.90;;;;;;5031605;28;20045;-74
2023/09/29 08:32:24;;;;;;;6.95;3.08;;;19.30;99.90;;;;;;5032226;28;20049;-72
2023/09/29 08:34:50;;;;;;;6.40;2.70;;;19.40;99.90;;;;;;5016793;28;20597;-72
2023/09/29 08:37:53;;;;;;;6.68;3.00;;;19.40;99.90;;;;;;5052844;27;20081;-73
2023/09/29 08:40:56;;;;;;;7.57;3.10;;;19.50;99.90;;;;;;5131903;27;20043;-77
2023/09/29 08:44:10;;;;;;;11.48;3.10;;;19.60;99.90;;;;;;5138380;27;20505;-73
2023/09/29 08:47:07;;;;;;;9.27;3.05;;;19.90;99.90;;;;;;5136991;27;20108;-77
2023/09/29 08:50:16;;;;;;;7.47;3.05;;;20.10;99.90;;;;;;5118441;27;21716;-73
2023/09/29 08:53:11;;;;;;;7.68;3.20;;;20.30;99.80;;;;;;5138403;27;20108;-74
2023/09/29 08:56:11;;;;;;;7.25;2.60;;;20.40;99.60;;;;;;5113226;27;20528;-77
2023/09/29 08:59:12;;;;;;;8.02;3.15;;;20.40;99.00;;;;;;5114323;27;20050;-75
2023/09/29 09:02:09;;;;;;;7.93;2.83;;;20.50;99.10;;;;;;5114464;27;20095;-76
2023/09/29 09:05:20;;;;;;;5.78;2.97;;;20.60;98.80;;;;;;5115920;27;20137;-73
2023/09/29 09:08:21;;;;;;;5.80;2.95;;;20.60;98.50;;;;;;5136096;27;20070;-75
2023/09/29 09:11:23;;;;;;;8.38;3.22;;;20.60;98.60;;;;;;5077595;27;20054;-74
2023/09/29 09:14:10;;;;;;;8.57;3.17;;;20.60;98.40;;;;;;5133471;27;20038;-75
2023/09/29 09:17:19;;;;;;;8.88;3.58;;;20.40;98.70;;;;;;5134460;27;20041;-72
2023/09/29 09:27:25;;;;;;;9.15;3.58;;;19.80;99.90;;;;;;5133187;27;20050;-74
2023/09/29 09:30:21;;;;;;;11.65;3.75;;;19.70;99.90;;;;;;5029522;28;20194;-74
2023/09/29 09:33:27;;;;;;;8.80;3.60;;;19.70;99.90;;;;;;5035353;28;20056;-75
2023/09/29 09:36:27;;;;;;;8.85;3.67;;;19.70;99.90;;;;;;5084866;27;20038;-70
2023/09/29 09:39:36;;;;;;;8.70;3.80;;;19.80;99.90;;;;;;5101522;27;20050;-79
2023/09/29 09:42:05;;;;;;;9.80;4.25;;;19.80;99.90;;;;;;5098730;27;20047;-78
2023/09/29 09:47:44;;;;;;;7.70;3.30;;;19.90;99.90;;;;;;5135320;27;20077;-81
2023/09/29 09:51:07;;;;;;;8.13;3.50;;;19.90;99.90;;;;;;5135523;27;20050;-78
2023/09/29 09:53:54;;;;;;;8.48;3.22;;;20.00;99.90;;;;;;5102706;27;20049;-77
2023/09/29 10:00:47;;;;;;;10.85;3.40;;;20.10;99.90;;;;;;5134343;27;20037;-76
2023/09/29 10:03:29;;;;;;;;;;;20.20;99.90;;;;;;5137174;27;20045;-78
2023/09/29 10:06:21;;;;;;;8.98;3.15;;;20.10;99.90;;;;;;5101187;27;19934;-77
2023/09/29 10:09:40;;;;;;;6.65;3.28;;;20.20;99.90;;;;;;5117693;27;20409;-73
2023/09/29 10:12:26;;;;;;;6.65;2.85;;;20.30;99.90;;;;;;5083435;27;20056;-72
2023/09/29 10:15:39;;;;;;;6.82;2.97;;;20.30;99.90;;;;;;5089500;27;20161;-72
2023/09/29 10:18:24;;;;;;;8.40;3.53;;;20.30;99.90;;;;;;5122309;27;20051;-73
2023/09/29 10:21:43;;;;;;;8.02;3.40;;;20.20;99.90;;;;;;5139394;27;20484;-73
2023/09/29 10:24:27;;;;;;;8.95;3.47;;;20.10;99.90;;;;;;5142050;27;20042;-73
2023/09/29 10:27:05;;;;;;;7.43;3.17;;;20.20;99.90;;;;;;5121993;27;20059;-74
2023/09/29 10:30:26;;;;;;;4.45;1.70;;;19.70;99.90;;;;;;5032027;28;20059;-74
2023/09/29 10:33:20;;;;;;;2.45;1.50;;;19.60;99.90;;;;;;5016660;28;20148;-74
2023/09/29 10:39:29;;;;;;;6.63;2.08;;;19.20;99.90;;;;;;5064696;28;20055;-74
2023/09/29 10:42:15;;;;;;;4.38;2.13;;;19.00;99.90;;;;;;5041467;28;20040;-73
2023/09/29 10:44:52;;;;;;;7.15;2.10;;;18.90;99.90;;;;;;5040337;28;20060;-73
2023/09/29 10:47:50;;;;;;;8.65;2.30;;;18.50;99.90;;;;;;5060103;28;20127;-73
2023/09/29 10:51:13;;;;;;;5.88;1.90;;;18.80;99.90;;;;;;4946799;28;20109;-76
2023/09/29 10:54:07;;;;;;;5.82;2.28;;;18.80;99.90;;;;;;4947030;28;20241;-76
2023/09/29 10:56:55;;;;;;;6.13;1.88;;;18.70;99.90;;;;;;5038089;28;20210;-78
2023/09/29 11:00:02;;;;;;;5.70;2.05;;;18.60;99.90;;;;;;5023556;28;20059;-78
2023/09/29 11:03:00;;;;;;;4.75;1.58;;;18.50;99.90;;;;;;5027034;28;20045;-76
2023/09/29 11:06:09;;;;;;;7.90;2.30;;;18.40;99.90;;;;;;5024974;28;20660;-80
2023/09/29 11:09:28;;;;;;;8.30;2.33;;;18.40;99.90;;;;;;5041350;28;20287;-76
2023/09/29 11:11:54;;;;;;;4.75;2.05;;;18.30;99.90;;;;;;5063326;28;20043;-76
2023/09/29 11:14:54;;;;;;;11.27;1.90;;;18.30;99.90;;;;;;5063853;28;20607;-76
2023/09/29 11:18:13;;;;;;;6.53;1.77;;;18.30;99.90;;;;;;5084270;28;20040;-77
2023/09/29 11:21:00;;;;;;;3.75;1.10;;;18.10;99.90;;;;;;5061718;27;20061;-77
2023/09/29 11:24:23;;;;;;;9.98;1.80;;;18.00;99.90;;;;;;5124602;27;20034;-77
2023/09/29 11:27:16;;;;;;;5.73;1.60;;;17.90;99.90;;;;;;5125301;27;20120;-79
2023/09/29 11:30:15;;;;;;;7.95;1.85;;;17.80;99.90;;;;;;5123002;27;20054;-78
2023/09/29 11:33:17;;;;;;;5.93;1.27;;;17.80;99.90;;;;;;5142771;27;20447;-77
2023/09/29 11:36:23;;;;;;;5.93;1.33;;;17.70;99.90;;;;;;5144793;27;20046;-76
2023/09/29 11:39:44;;;;;;;4.43;1.45;;;17.60;99.90;;;;;;5125808;27;20051;-78
2023/09/29 11:42:35;;;;;;;5.65;1.38;;;17.60;99.90;;;;;;5102204;27;20512;-77
2023/09/29 11:45:28;;;;;;;5.47;1.40;;;17.50;99.90;;;;;;5142877;27;20493;-77
2023/09/29 11:48:27;;;;;;;4.43;0.90;;;17.50;99.90;;;;;;5126636;27;20039;-77
2023/09/29 11:51:15;;;;;;;6.28;1.10;;;17.50;99.90;;;;;;5105554;27;20122;-76
2023/09/29 11:53:57;;;;;;;5.28;1.08;;;17.60;99.90;;;;;;5099644;27;20478;-77
2023/09/29 11:57:18;;;;;;;5.75;1.40;;;17.50;99.90;;;;;;5103235;27;20047;-76
2023/09/29 11:59:53;;;;;;;4.97;1.20;;;17.50;99.90;;;;;;5117298;27;20505;-77
2023/09/29 12:02:22;;;;;;;6.70;1.30;;;17.60;99.90;;;;;;5101602;27;20066;-78
2023/09/29 12:05:11;;;;;;;5.55;1.17;;;17.70;99.90;;;;;;5100685;27;20090;-78
2023/09/29 12:08:24;;;;;;;3.78;1.10;;;17.80;99.90;;;;;;5119557;27;20157;-77
2023/09/29 12:11:34;;;;;;;5.90;1.48;;;17.80;99.90;;;;;;5103244;27;20147;-76
2023/09/29 12:14:54;;;;;;;5.95;1.10;;;17.80;99.90;;;;;;5117426;27;20055;-77
2023/09/29 12:17:45;;;;;;;6.30;1.10;;;17.70;99.90;;;;;;5087153;27;20039;-76
2023/09/29 12:21:05;;;;;;;3.33;1.30;;;17.70;99.90;;;;;;5119928;27;20395;-79
2023/09/29 12:23:31;;;;;;;4.90;1.35;;;17.90;99.90;;;;;;5102257;27;20495;-76
2023/09/29 12:25:57;;;;;;;3.50;1.20;;;18.10;99.90;;;;;;5106137;27;20063;-77
2023/09/29 12:29:05;;;;;;;6.00;1.63;;;18.40;99.90;;;;;;5106829;27;20043;-77
2023/09/29 12:31:40;;;;;;;5.45;1.42;;;18.70;99.90;;;;;;5092269;27;20047;-76
2023/09/29 12:34:44;;;;;;;5.22;1.20;;;19.00;99.90;;;;;;5096875;28;20146;-77
2023/09/29 12:41:08;;;;;;;6.10;1.58;;;18.80;99.90;;;;;;5099670;28;20399;-76
2023/09/29 12:43:56;;;;;;;5.80;1.70;;;19.60;99.90;;;;;;5098596;28;20483;-78
2023/09/29 12:46:22;;;;;;;6.82;1.92;;;20.10;98.90;;;;;;5067937;28;20953;-76
2023/09/29 12:48:51;;;;;;;6.88;2.03;;;20.40;97.80;;;;;;5080184;28;20062;-78
2023/09/29 12:52:10;;;;;;;5.82;1.90;;;20.70;96.40;;;;;;5101136;28;20055;-78
2023/09/29 12:55:14;;;;;;;6.95;1.98;;;20.70;92.70;;;;;;5098031;28;20935;-77
2023/09/29 12:58:18;;;;;;;8.23;2.65;;;21.40;92.20;;;;;;5099393;28;20059;-77
2023/09/29 13:01:08;;;;;;;8.68;2.20;;;21.50;90.00;;;;;;5098346;28;20056;-78
2023/09/29 13:03:59;;;;;;;10.48;2.70;;;21.60;90.10;;;;;;5099280;28;20050;-77
2023/09/29 13:06:46;;;;;;;8.27;2.58;;;21.40;84.40;;;;;;5141758;27;20041;-73
2023/09/29 13:09:35;;;;;;;11.02;2.75;;;21.10;88.50;;;;;;5124048;27;20074;-73
2023/09/29 13:15:47;;;;;;;9.30;2.80;;;21.10;90.30;;;;;;5140330;27;20051;-73
2023/09/29 13:18:48;;;;;;;9.18;2.50;;;20.90;85.80;;;;;;5106536;27;20054;-77
2023/09/29 13:21:23;;;;;;;9.15;3.10;;;20.80;89.90;;;;;;5142024;27;20156;-76
2023/09/29 13:24:20;;;;;;;9.38;2.30;;;20.90;91.00;;;;;;5105192;27;20043;-82
2023/09/29 13:27:01;;;;;;;9.65;2.70;;;21.10;90.30;;;;;;5141412;27;20051;-76
2023/09/29 13:29:48;;;;;;;6.30;1.98;;;21.20;88.60;;;;;;5074590;27;20073;-73
2023/09/29 13:32:17;;;;;;;6.40;2.05;;;21.30;84.80;;;;;;5087848;27;20050;-76
2023/09/29 13:34:51;;;;;;;9.32;2.10;;;21.30;84.60;;;;;;5122467;27;20054;-76
2023/09/29 13:37:48;;;;;;;9.32;2.35;;;21.10;83.70;;;;;;5118742;27;20107;-76
2023/09/29 13:40:43;;;;;;;9.45;2.58;;;21.00;81.70;;;;;;5134667;27;20058;-75
2023/09/29 13:43:35;;;;;;;7.90;2.42;;;20.80;83.30;;;;;;5114419;27;20081;-79
2023/09/29 13:46:36;;;;;;;7.85;2.00;;;20.70;83.00;;;;;;5110078;27;20042;-75
2023/09/29 13:49:24;;;;;;;8.27;2.10;;;21.00;79.60;;;;;;5109084;27;20099;-77
2023/09/29 13:52:08;;;;;;;7.22;2.22;;;21.20;80.70;;;;;;5147396;27;20107;-77
2023/09/29 13:55:05;;;;;;;7.15;2.45;;;21.30;78.50;;;;;;5115726;27;20596;-79
2023/09/29 13:57:40;;;;;;;9.55;2.53;;;21.60;74.90;;;;;;5147871;27;20793;-78
2023/09/29 14:00:27;;;;;;;8.40;2.97;;;21.70;70.70;;;;;;5111994;27;20050;-74
2023/09/29 14:04:01;;;;;;;7.22;2.83;;;22.00;68.70;;;;;;5141928;27;20853;-78
2023/09/29 14:06:35;;;;;;;10.45;3.30;;;22.40;63.40;;;;;;5112779;27;20127;-76
2023/09/29 14:09:21;;;;;;;12.38;3.83;;;22.30;61.20;;;;;;5120616;27;20055;-75
2023/09/29 14:12:05;;;;;;;10.90;3.50;;;21.90;64.30;;;;;;5077681;28;20091;-73
2023/09/29 14:14:40;;;;;;;11.18;4.20;;;21.50;68.50;;;;;;5077027;28;20196;-75
2023/09/29 14:18:03;;;;;;;12.32;4.32;;;21.20;70.90;;;;;;5063489;28;20048;-74
2023/09/29 14:20:34;;;;;;;13.38;3.45;;;20.80;67.70;;;;;;5078612;28;20150;-74
2023/09/29 14:23:25;;;;;;;12.80;4.20;;;20.50;74.20;;;;;;5050413;28;20071;-75
2023/09/29 14:26:14;;;;;;;8.15;3.45;;;20.40;75.40;;;;;;5063997;28;20090;-78
2023/09/29 14:28:52;;;;;;;12.32;4.43;;;20.20;70.40;;;;;;5028800;28;20079;-75
2023/09/29 14:32:18;;;;;;;10.38;3.75;;;20.30;73.20;;;;;;5051437;28;20116;-75
2023/09/29 14:35:27;;;;;;;9.55;3.88;;;20.50;70.60;;;;;;5064171;28;20456;-74
2023/09/29 14:38:16;;;;;;;12.25;4.50;;;20.50;67.60;;;;;;5076975;28;20105;-75
2023/09/29 14:41:02;;;;;;;11.07;4.15;;;20.60;59.30;;;;;;5042343;28;20056;-79
2023/09/29 14:43:45;;;;;;;12.05;4.20;;;20.90;58.80;;;;;;5125539;27;20462;-75
2023/09/29 14:46:47;;;;;;;12.13;4.38;;;21.00;56.40;;;;;;5141448;27;20037;-75
2023/09/29 14:49:29;;;;;;;12.50;4.85;;;21.30;54.10;;;;;;5121976;27;20060;-76
2023/09/29 14:51:55;;;;;;;13.60;4.63;;;21.50;51.00;;;;;;5120386;27;20074;-75
2023/09/29 14:54:31;;;;;;;11.43;4.40;;;21.70;47.80;;;;;;5120794;27;20096;-76
2023/09/29 14:57:18;;;;;;;9.93;4.32;;;21.80;43.20;;;;;;5086229;27;20384;-75
2023/09/29 14:59:54;;;;;;;11.38;4.20;;;21.80;25.50;;;;;;5125601;27;20051;-77
2023/09/29 15:02:23;;;;;;;13.88;4.65;;;21.80;33.90;;;;;;5112471;27;20043;-76
2023/09/29 15:05:10;;;;;;;12.32;4.40;;;21.80;29.80;;;;;;5090283;27;20453;-74
2023/09/29 15:07:53;;;;;;;12.68;4.38;;;21.80;30.00;;;;;;5116098;27;20046;-78
2023/09/29 15:10:25;;;;;;;13.00;4.97;;;21.80;30.40;;;;;;5140633;27;20042;-76
2023/09/29 15:13:22;;;;;;;11.45;4.03;;;22.50;28.10;;;;;;5095170;27;20046;-75
2023/09/29 15:15:53;;;;;;;9.85;4.40;;;21.90;26.50;;;;;;5121094;27;20062;-77
2023/09/29 15:18:36;;;;;;;10.45;4.60;;;21.90;24.80;;;;;;5055811;27;20142;-80
2023/09/29 15:21:37;;;;;;;10.80;3.97;;;21.80;24.00;;;;;;5124480;27;20058;-79
2023/09/29 15:24:25;;;;;;;9.45;3.97;;;21.70;1.80;;;;;;5137057;27;20077;-78
2023/09/29 15:27:06;;;;;;;13.93;4.78;;;21.60;24.60;;;;;;5121083;27;20160;-75
2023/09/29 15:29:48;;;;;;;10.77;4.07;;;21.50;27.70;;;;;;5102156;27;20049;-82
2023/09/29 15:32:42;;;;;;;10.55;4.35;;;21.50;17.30;;;;;;5107613;27;20077;-79
2023/09/29 15:35:11;;;;;;;13.38;4.45;;;21.40;24.90;;;;;;5121591;27;20051;-79
2023/09/29 15:37:54;;;;;;;12.27;4.38;;;21.20;23.00;;;;;;5121720;27;20099;-83
2023/09/29 15:40:20;;;;;;;10.15;3.63;;;21.00;22.80;;;;;;5101538;27;20126;-78
2023/09/29 15:42:46;;;;;;;10.27;3.78;;;20.90;23.60;;;;;;5120798;27;20125;-79
2023/09/29 15:45:33;;;;;;;9.88;3.55;;;20.80;27.40;;;;;;5118753;27;20366;-78
2023/09/29 15:48:01;;;;;;;10.85;3.88;;;20.70;20.00;;;;;;5118942;27;21109;-80
2023/09/29 15:50:27;;;;;;;12.65;4.20;;;20.50;33.40;;;;;;5103991;27;20060;-80
2023/09/29 15:53:16;;;;;;;13.10;4.15;;;20.30;34.20;;;;;;5083878;27;20039;-79
2023/09/29 15:55:47;;;;;;;9.82;3.58;;;19.90;29.70;;;;;;5107778;27;20633;-78